Dobrodošli na spletni strani vremenske postaje Senovo. Vse informacije so informativnega značaja, saj vremenska postaja ni del državne mreže meteoroloških postaj. AKTUALNIH OBVESTIL NI.


Posebna pozornost v zvezi z vremenskimi dogajanji ni potrebna.    Posebna pozornost v zvezi z vremenskimi dogajanji ni potrebna.

Pogled proti Armezu več informacij Pogled proti Armezu


Bohor več informacij Bohor


Radar strel več informacij blitzortung!


Radar padavin več informacij rain snow radar


Obiščite še:

Template documentation
and downloads

And another site



Weather Underground, zgodovina - Tekstovno

Dnevni povzetek za December 8, 2017 Enote:  Metrično    Angleško   Obe
« Predhodni Dan
Naslednji Dan »
Dnevni Tedenski Mesečni Letni Po meri
  Višja: Nižja: Povprečje:
Temperatura: -17.8 °C -17 °C -14.1 °C
Točka rosišča: -17.8 °C -18.8 °C -15.9 °C
Vlažnost: Humidity % 62 % 79 %
Hitrost vetra: 0 km/h 0 km/h 5.8 km/h
Sunki vetra: 0 km/h - -
Veter:- - SW
Zračni tlak: 0 hPa 34063.2 hPa -
Padavine: 568.96 mm    
Historical Graphs
 
 
Tabelarni podarki za December 8, 2017
Čas Temperatura Točka rosišča Zračni tlak Veter Hitrost vetra Sunki vetra Vlažnost Intenziteta padavin (urna)
-17.8 °C -17.8 °C 0 hPa Calm     Humidity % 0 mm
00:07 -15.2 °C -17.9 °C 34533.8 hPa West 0.3 km/h 5.6 km/h 70 % 0 mm
00:12 -15.3 °C -18.1 °C 34496.6 hPa Calm   8 km/h 70 % 0 mm
00:17 -15.4 °C -18.2 °C 34496.6 hPa NW 1 km/h 8 km/h 70 % 0 mm
00:22 -15.6 °C -18.2 °C 34496.6 hPa NW 1 km/h 8 km/h 71 % 0 mm
00:32 -15.9 °C -18.6 °C 34496.6 hPa NNW 1.8 km/h 7.6 km/h 71 % 0 mm
00:42 -16.1 °C -18.7 °C 34496.6 hPa North 1.8 km/h 6.4 km/h 72 % 0 mm
00:47 -16.2 °C -18.6 °C 34496.6 hPa North 0.8 km/h 6.4 km/h 73 % 0 mm
00:52 -16.3 °C -18.7 °C 34496.6 hPa NNW 0.8 km/h 5.6 km/h 73 % 0 mm
00:57 -16.4 °C -18.8 °C 34496.6 hPa NNW 0.8 km/h 5.6 km/h 73 % 0 mm
01:07 -16.5 °C -18.8 °C 34496.6 hPa NW 0.8 km/h 7.6 km/h 74 % 0 mm
01:17 -16.5 °C -18.7 °C 34496.6 hPa NNW 4.7 km/h 11.1 km/h 75 % 0 mm
01:22 -16.6 °C -18.8 °C 34496.6 hPa NNW 3.1 km/h 7.6 km/h 75 % 0 mm
01:27 -16.6 °C -18.8 °C 34476.3 hPa WNW 2.1 km/h 9.8 km/h 75 % 0 mm
01:37 -16.6 °C -18.7 °C 34476.3 hPa NNW 3.4 km/h 8.9 km/h 76 % 0 mm
01:42 -16.6 °C -18.6 °C 34476.3 hPa NW 3.4 km/h 8.9 km/h 77 % 0 mm
01:52 -16.4 °C -18.4 °C 34476.3 hPa SSE 2.1 km/h 7.6 km/h 78 % 0 mm
02:02 -16.1 °C -18 °C 34428.8 hPa West 3.1 km/h 9.8 km/h 78 % 0 mm
02:08 -16.1 °C -17.9 °C 34428.8 hPa West 3.1 km/h 9.8 km/h 79 % 0 mm
02:13 -16.1 °C -17.9 °C 34428.8 hPa NW 3.7 km/h 8 km/h 79 % 0 mm
02:18 -16.1 °C -17.8 °C 34428.8 hPa NW 4.3 km/h 8 km/h 80 % 0 mm
02:23 -16.2 °C -17.9 °C 34428.8 hPa NW 2.6 km/h 7.6 km/h 80 % 0 mm
02:28 -16.2 °C -17.9 °C 34428.8 hPa WNW 1.3 km/h 5.6 km/h 80 % 0 mm
02:33 -16.3 °C -17.9 °C 34428.8 hPa NW 2.3 km/h 8 km/h 81 % 0 mm
02:43 -16.5 °C -18.1 °C 34428.8 hPa NW 1 km/h 6.9 km/h 81 % 0 mm
02:48 -16.6 °C -18.2 °C 34428.8 hPa NW 0.8 km/h 6.4 km/h 81 % 0 mm
02:58 -16.7 °C -18.2 °C 34476.3 hPa NNW 1.3 km/h 7.6 km/h 82 % 0 mm
03:03 -16.7 °C -18.2 °C 34476.3 hPa NW 1.3 km/h 7.6 km/h 82 % 0 mm
03:08 -16.8 °C -18.4 °C 34476.3 hPa NW 1 km/h 5.6 km/h 82 % 0 mm
03:13 -16.8 °C -18.4 °C 34428.8 hPa WNW 0.8 km/h 4.2 km/h 82 % 0 mm
03:18 -16.9 °C -18.4 °C 34428.8 hPa NW 0.8 km/h 6.9 km/h 82 % 0 mm
03:28 -16.9 °C -18.4 °C 34405.1 hPa NNW 1.3 km/h 6.4 km/h 83 % 0 mm
03:33 -16.9 °C -18.4 °C 34405.1 hPa NW 1.8 km/h 6.4 km/h 83 % 0 mm
03:38 -17 °C -18.4 °C 34405.1 hPa NNW 2.6 km/h 6.4 km/h 83 % 0 mm
03:43 -16.9 °C -18.3 °C 34405.1 hPa NNW 1.3 km/h 6.4 km/h 84 % 0 mm
03:48 -17 °C -18.3 °C 34405.1 hPa NW 0.3 km/h 4.2 km/h 84 % 0 mm
03:53 -17 °C -18.3 °C 34405.1 hPa NNW 1.3 km/h 9.3 km/h 84 % 0 mm
03:58 -16.8 °C -18.2 °C 34405.1 hPa NNW 3.4 km/h 9.3 km/h 84 % 0 mm
04:03 -16.8 °C -18 °C 34405.1 hPa NNW 3.9 km/h 7.6 km/h 85 % 0 mm
04:08 -16.8 °C -18 °C 34405.1 hPa NNW 2.1 km/h 6.9 km/h 85 % 0 mm
04:13 -16.7 °C -17.9 °C 34405.1 hPa NNW 0.3 km/h 4.2 km/h 85 % 0 mm
04:22 -16.7 °C -17.9 °C 34405.1 hPa Calm     86 % 0 mm
04:24 -16.7 °C -17.9 °C 34405.1 hPa Calm     86 % 0 mm
04:25 -16.7 °C -17.9 °C 34405.1 hPa Calm     86 % 0 mm
04:35 -16.7 °C -17.8 °C 34371.3 hPa NNW 2.9 km/h 8 km/h 86 % 0 mm
04:40 -16.7 °C -17.8 °C 34371.3 hPa NW 1.3 km/h 6.4 km/h 86 % 0 mm
04:45 -16.7 °C -17.8 °C 34371.3 hPa NW 1.6 km/h 8 km/h 86 % 0 mm
04:50 -16.6 °C -17.8 °C 34371.3 hPa NW 2.9 km/h 8 km/h 86 % 0 mm
05:00 -16.3 °C -17.3 °C 34337.4 hPa NNW 4.3 km/h 11.1 km/h 87 % 0 mm
05:05 -16 °C -17.1 °C 34337.4 hPa WNW 5.5 km/h 15 km/h 87 % 0 mm
05:10 -15.7 °C -16.7 °C 34337.4 hPa WNW 5.1 km/h 15 km/h 88 % 0 mm
05:15 -15.4 °C -16.4 °C 34371.3 hPa WNW 4.3 km/h 9.3 km/h 88 % 0 mm
05:25 -15 °C -16 °C 34371.3 hPa West 4.7 km/h 16.9 km/h 88 % 0 mm
05:35 -14.6 °C -15.4 °C 34371.3 hPa West 5 km/h 15 km/h 90 % 0 mm
05:40 -14.5 °C -15.3 °C 34371.3 hPa West 3.9 km/h 11.6 km/h 90 % 0 mm
05:45 -14.4 °C -15.2 °C 34371.3 hPa WNW 2.3 km/h 10.3 km/h 90 % 0 mm
05:50 -14.3 °C -15.2 °C 34371.3 hPa WNW 5.5 km/h 10.3 km/h 90 % 0 mm
06:00 -14.5 °C -15.3 °C 34371.3 hPa WSW 5.6 km/h 5.6 km/h 90 % 0 mm
06:05 -14.4 °C -15.2 °C 34371.3 hPa WSW 5.6 km/h 5.6 km/h 90 % 0 mm
06:15 -14.5 °C -15.3 °C 34337.4 hPa SSW 5.6 km/h 6.9 km/h 90 % 0 mm
06:20 -14.3 °C -15.1 °C 34337.4 hPa SSW 5.6 km/h 6.9 km/h 90 % 0 mm
06:25 -14.2 °C -15 °C 34337.4 hPa SSW 5.6 km/h 6.9 km/h 90 % 0 mm
06:30 -14.1 °C -14.9 °C 34337.4 hPa SSE 8.9 km/h 14 km/h 90 % 0 mm
06:35 -14.1 °C -14.9 °C 34337.4 hPa SSE 10.6 km/h 14 km/h 90 % 0 mm
06:40 -14 °C -14.8 °C 34337.4 hPa SSE 7.6 km/h 14.5 km/h 90 % 0 mm
06:45 -13.9 °C -14.8 °C 34337.4 hPa South 5.1 km/h 14.5 km/h 90 % 0 mm
06:50 -13.8 °C -14.6 °C 34337.4 hPa WSW 8.2 km/h 19.6 km/h 90 % 0 mm
07:00 -13.6 °C -14.5 °C 34303.6 hPa SSW 9.3 km/h 16.9 km/h 90 % 0 mm
07:05 -13.4 °C -14.4 °C 34303.6 hPa SSW 8.5 km/h 18.7 km/h 89 % 0 mm
07:10 -13.4 °C -14.3 °C 34303.6 hPa SW 10.6 km/h 27.7 km/h 89 % 0 mm
07:15 -13.2 °C -14.2 °C 34303.6 hPa WSW 9.8 km/h 27.7 km/h 89 % 0 mm
07:20 -13.2 °C -14.3 °C 34303.6 hPa SW 9.3 km/h 19.6 km/h 88 % 0 mm
07:25 -13.1 °C -14.2 °C 34303.6 hPa WSW 9 km/h 19.6 km/h 88 % 0 mm
07:30 -13.1 °C -14.2 °C 34303.6 hPa WSW 9 km/h 23 km/h 87 % 0 mm
07:35 -13 °C -14.1 °C 34303.6 hPa WSW 9.3 km/h 26.7 km/h 87 % 0 mm
07:40 -12.9 °C -14.1 °C 34303.6 hPa West 10.1 km/h 26.7 km/h 87 % 0 mm
07:45 -12.9 °C -14.2 °C 34303.6 hPa WSW 12.9 km/h 22 km/h 86 % 0 mm
08:01 -12.8 °C -14.2 °C 34303.6 hPa West 12.2 km/h 25.4 km/h 85 % 0 mm
08:06 -12.8 °C -14.3 °C 34303.6 hPa West 11.6 km/h 25.4 km/h 84 % 0 mm
08:11 -12.8 °C -14.3 °C 34303.6 hPa SW 11.1 km/h 22.5 km/h 83 % 0 mm
08:16 -12.7 °C -14.2 °C 34303.6 hPa SW 12.2 km/h 22.5 km/h 83 % 0 mm
08:21 -12.6 °C -14.1 °C 34303.6 hPa WSW 11.6 km/h 20.9 km/h 83 % 0 mm
08:26 -12.6 °C -14.1 °C 34303.6 hPa West 10.1 km/h 22.5 km/h 83 % 0 mm
08:31 -12.5 °C -14.1 °C 34303.6 hPa West 9.8 km/h 26.2 km/h 82 % 0 mm
08:36 -12.4 °C -14.1 °C 34303.6 hPa WSW 10.6 km/h 28.5 km/h 82 % 0 mm
08:41 -12.4 °C -14.2 °C 34269.7 hPa WSW 10.3 km/h 28.5 km/h 81 % 0 mm
08:46 -12.4 °C -14.2 °C 34269.7 hPa West 10.9 km/h 22 km/h 81 % 0 mm
08:56 -12.4 °C -14.2 °C 34303.6 hPa West 8.9 km/h 26.2 km/h 80 % 0 mm
09:01 -12.4 °C -14.2 °C 34303.6 hPa WSW 10.3 km/h 26.2 km/h 80 % 0 mm
09:06 -12.3 °C -14.3 °C 34303.6 hPa WSW 10.3 km/h 20.9 km/h 79 % 0 mm
09:16 -12.2 °C -14.2 °C 34303.6 hPa West 7.2 km/h 16.3 km/h 78 % 0 mm
09:21 -12.1 °C -14.1 °C 34303.6 hPa West 4.3 km/h 14.5 km/h 78 % 0 mm
09:26 -12.1 °C -14.1 °C 34303.6 hPa SW 3.1 km/h 9.8 km/h 78 % 0 mm
09:36 -12.1 °C -14.3 °C 34303.6 hPa WSW 4.7 km/h 15.6 km/h 77 % 0 mm
09:41 -12.1 °C -14.2 °C 34303.6 hPa WSW 6.3 km/h 27.7 km/h 77 % 0 mm
09:51 -11.9 °C -14.2 °C 34303.6 hPa SW 15.3 km/h 29 km/h 76 % 0 mm
09:56 -11.9 °C -14.2 °C 34269.7 hPa SW 14.2 km/h 29 km/h 76 % 0 mm
10:01 -11.9 °C -14.3 °C 34269.7 hPa SSW 11.1 km/h 26.2 km/h 75 % 0 mm
10:06 -11.9 °C -14.3 °C 34269.7 hPa SW 11.9 km/h 26.2 km/h 75 % 0 mm
10:16 -11.9 °C -14.4 °C 34269.7 hPa SW 12.2 km/h 22 km/h 74 % 0 mm
10:26 -11.9 °C -14.5 °C 34269.7 hPa SW 10.1 km/h 19.2 km/h 73 % 0 mm
10:31 -11.9 °C -14.5 °C 34269.7 hPa SW 10.1 km/h 15.6 km/h 73 % 0 mm
10:46 -12 °C -14.7 °C 34269.7 hPa SW 8 km/h 16.9 km/h 72 % 0 mm
10:51 -12 °C -14.7 °C 34269.7 hPa SSW 6.8 km/h 16.3 km/h 72 % 0 mm
10:56 -12 °C -14.7 °C 34269.7 hPa SW 7.6 km/h 15 km/h 72 % 0 mm
11:01 -12 °C -14.7 °C 34269.7 hPa SW 9.7 km/h 17.4 km/h 72 % 0 mm
11:06 -12 °C -14.8 °C 34269.7 hPa SW 10.1 km/h 17.4 km/h 71 % 0 mm
11:11 -12 °C -14.8 °C 34235.8 hPa SW 8.2 km/h 15.6 km/h 71 % 0 mm
11:16 -12 °C -14.8 °C 34235.8 hPa SW 9.3 km/h 10.3 km/h 71 % 0 mm
11:21 -12 °C -14.8 °C 34235.8 hPa SW 7.6 km/h 15 km/h 71 % 0 mm
11:26 -11.9 °C -14.8 °C 34235.8 hPa SW 5.5 km/h 15 km/h 71 % 0 mm
11:31 -11.9 °C -14.8 °C 34235.8 hPa SW 4.7 km/h 15 km/h 71 % 0 mm
11:36 -11.9 °C -14.8 °C 34235.8 hPa WSW 6.3 km/h 15 km/h 71 % 0 mm
11:51 -11.9 °C -14.8 °C 34235.8 hPa SW 4.2 km/h 16.9 km/h 70 % 0 mm
11:56 -11.8 °C -14.8 °C 34235.8 hPa WSW 4.2 km/h 12.7 km/h 70 % 0 mm
12:11 -11.7 °C -14.6 °C 34235.8 hPa SW 5.1 km/h 15 km/h 70 % 0 mm
12:16 -11.7 °C -14.7 °C 34235.8 hPa WSW 8.5 km/h 15 km/h 69 % 0 mm
12:21 -11.6 °C -14.7 °C 34235.8 hPa West 7.7 km/h 16.9 km/h 68 % 0 mm
12:26 -11.6 °C -14.7 °C 34198.6 hPa WSW 7.2 km/h 22 km/h 68 % 0 mm
12:31 -11.5 °C -14.8 °C 34198.6 hPa WSW 8.2 km/h 22 km/h 67 % 0 mm
12:36 -11.5 °C -14.8 °C 34198.6 hPa SW 9.8 km/h 17.4 km/h 67 % 0 mm
12:41 -11.6 °C -14.9 °C 34198.6 hPa SW 11.1 km/h 17.4 km/h 66 % 0 mm
12:43 -11.6 °C -14.9 °C 34198.6 hPa SW 11.1 km/h 17.4 km/h 66 % 0 mm
12:48 -11.6 °C -14.9 °C 34198.6 hPa SW 10.3 km/h 17.4 km/h 66 % 0 mm
12:58 -11.6 °C -15.1 °C 34164.7 hPa SW 9.7 km/h 19.6 km/h 65 % 0 mm
13:03 -11.6 °C -15.1 °C 34164.7 hPa SW 6.9 km/h 11.1 km/h 65 % 0 mm
13:08 -11.7 °C -15.2 °C 34164.7 hPa SSW 5.1 km/h 11.1 km/h 65 % 0 mm
13:13 -11.7 °C -15.2 °C 34164.7 hPa SW 6 km/h 9.8 km/h 65 % 0 mm
13:23 -11.7 °C -15.2 °C 34164.7 hPa West 3.4 km/h 11.1 km/h 65 % 0 mm
13:28 -11.8 °C -15.3 °C 34164.7 hPa West 4.3 km/h 11.1 km/h 65 % 0 mm
13:38 -11.7 °C -15.2 °C 34164.7 hPa SSW 7.6 km/h 14.5 km/h 65 % 0 mm
13:43 -11.7 °C -15.2 °C 34164.7 hPa SSW 9.3 km/h 19.2 km/h 65 % 0 mm
13:53 -11.7 °C -15.3 °C 34164.7 hPa SW 8.2 km/h 19.2 km/h 64 % 0 mm
13:59 -11.6 °C -15.2 °C 34164.7 hPa SSW 6.8 km/h 10.3 km/h 64 % 0 mm
14:14 -11.7 °C -15.4 °C 34198.6 hPa SSE 8 km/h 8 km/h 63 % 0 mm
14:24 -11.7 °C -15.4 °C 34198.6 hPa SW 7.7 km/h 19.6 km/h 63 % 0 mm
14:25 -11.7 °C -15.5 °C 34198.6 hPa SW 7.6 km/h 19.6 km/h 63 % 0 mm
14:35 -11.7 °C -15.5 °C 34164.7 hPa SW 10.1 km/h 16.9 km/h 63 % 0 mm
14:40 -11.8 °C -15.5 °C 34164.7 hPa SW 9 km/h 16.9 km/h 63 % 0 mm
14:45 -11.8 °C -15.5 °C 34164.7 hPa SW 9.7 km/h 15.6 km/h 63 % 0 mm
14:50 -11.8 °C -15.7 °C 34164.7 hPa SSW 10.1 km/h 15.6 km/h 62 % 0 mm
15:00 -11.8 °C -15.6 °C 34164.7 hPa SSW 9.8 km/h 19.6 km/h 63 % 0 mm
15:05 -11.8 °C -15.6 °C 34164.7 hPa SW 12.2 km/h 19.6 km/h 63 % 0 mm
15:15 -11.9 °C -15.7 °C 34164.7 hPa SW 10.1 km/h 20.3 km/h 63 % 0 mm
15:20 -11.9 °C -15.6 °C 34164.7 hPa SW 10.3 km/h 20.3 km/h 64 % 0 mm
15:25 -12 °C -15.6 °C 34130.9 hPa SW 7.7 km/h 15 km/h 64 % 0 mm
15:35 -12.1 °C -15.6 °C 34130.9 hPa SW 6 km/h 10.3 km/h 65 % 0 mm
15:40 -12.2 °C -15.7 °C 34130.9 hPa SW 3.4 km/h 8 km/h 65 % 0 mm
15:45 -12.2 °C -15.7 °C 34130.9 hPa WNW 1.8 km/h 8 km/h 65 % 0 mm
15:51 -12.3 °C -15.7 °C 34130.9 hPa WNW 1.8 km/h 8 km/h 66 % 0 mm
16:03 -12.5 °C -15.6 °C 34130.9 hPa WNW 1.3 km/h 5.6 km/h 68 % 0 mm
16:08 -12.6 °C -15.7 °C 34130.9 hPa WNW 2.3 km/h 5.6 km/h 68 % 0 mm
16:13 -12.7 °C -15.7 °C 34164.7 hPa WNW 1.8 km/h 3.4 km/h 69 % 0 mm
16:23 -12.9 °C -15.7 °C 34164.7 hPa Calm     71 % 0 mm
16:28 -13 °C -15.8 °C 34130.9 hPa Calm     71 % 0 mm
16:34 -13.1 °C -15.7 °C 34130.9 hPa Calm     72 % 7.62 mm
16:44 -13.2 °C -15.7 °C 34130.9 hPa Calm     73 % 7.62 mm
16:49 -13.4 °C -15.8 °C 34130.9 hPa Calm     74 % 7.62 mm
16:58 -13.4 °C -15.7 °C 34130.9 hPa Calm     75 % 7.62 mm
17:08 -13.6 °C -15.8 °C 34130.9 hPa Calm     76 % 12.7 mm
17:12 -13.6 °C -15.7 °C 34130.9 hPa Calm     77 % 20.32 mm
17:18 -13.7 °C -15.7 °C 34130.9 hPa Calm     78 % 20.32 mm
17:28 -13.7 °C -15.6 °C 34130.9 hPa Calm     79 % 20.32 mm
17:33 -13.8 °C -15.7 °C 34130.9 hPa Calm     79 % 12.7 mm
17:38 -13.8 °C -15.6 °C 34130.9 hPa Calm     80 % 12.7 mm
17:43 -13.8 °C -15.6 °C 34097 hPa Calm     80 % 12.7 mm
17:48 -13.9 °C -15.6 °C 34097 hPa Calm     81 % 12.7 mm
17:53 -13.9 °C -15.6 °C 34097 hPa Calm     81 % 25.4 mm
17:58 -13.9 °C -15.5 °C 34097 hPa Calm     82 % 33.02 mm
18:03 -13.9 °C -15.4 °C 34097 hPa Calm     83 % 33.02 mm
18:08 -14 °C -15.5 °C 34097 hPa ENE 1.3 km/h 4.2 km/h 83 % 33.02 mm
18:13 -14 °C -15.5 °C 34097 hPa ENE 0.5 km/h 4.2 km/h 83 % 33.02 mm
18:18 -14 °C -15.4 °C 34097 hPa Calm     84 % 33.02 mm
18:23 -14 °C -15.4 °C 34097 hPa Calm   4.2 km/h 84 % 38.1 mm
18:30 -14 °C -15.3 °C 34097 hPa Calm     85 % 38.1 mm
18:35 -14.1 °C -15.4 °C 34097 hPa Calm     85 % 38.1 mm
18:40 -14.1 °C -15.3 °C 34097 hPa Calm     86 % 38.1 mm
18:50 -14.1 °C -15.3 °C 34097 hPa Calm     86 % 25.4 mm
18:55 -14.1 °C -15.3 °C 34097 hPa Calm     86 % 20.32 mm
19:05 -14.1 °C -15.2 °C 34097 hPa Calm   3.4 km/h 87 % 20.32 mm
19:07 -14.1 °C -15.2 °C 34097 hPa NW 0.3 km/h 3.4 km/h 87 % 20.32 mm
19:12 -14.2 °C -15.3 °C 34097 hPa NW 0.3 km/h 3.4 km/h 87 % 20.32 mm
19:17 -14.2 °C -15.3 °C 34097 hPa Calm     87 % 20.32 mm
19:22 -14.2 °C -15.3 °C 34097 hPa Calm     87 % 12.7 mm
19:27 -14.2 °C -15.3 °C 34097 hPa Calm     87 % 20.32 mm
19:34 -14.1 °C -15.1 °C 34097 hPa Calm     88 % 20.32 mm
19:44 -14.2 °C -15.2 °C 34130.9 hPa Calm     88 % 33.02 mm
19:49 -14.2 °C -15.2 °C 34130.9 hPa Calm     88 % 33.02 mm
19:54 -14.2 °C -15.2 °C 34130.9 hPa Calm     88 % 45.72 mm
20:04 -14.2 °C -15.2 °C 34097 hPa Calm     89 % 58.42 mm
20:24 -14.2 °C -15.1 °C 34097 hPa Calm     90 % 58.42 mm
20:44 -14.2 °C -14.9 °C 34097 hPa Calm   3.4 km/h 91 % 63.5 mm
20:49 -14.2 °C -14.9 °C 34097 hPa Calm   3.4 km/h 91 % 63.5 mm
21:04 -14.2 °C -14.9 °C 34097 hPa NNE 1.3 km/h 8 km/h 91 % 63.5 mm
21:06 -14.2 °C -14.9 °C 34097 hPa NNE 1.3 km/h 8 km/h 91 % 63.5 mm
21:11 -14.2 °C -14.9 °C 34130.9 hPa NE 1.3 km/h 8 km/h 92 % 63.5 mm
21:21 -14.1 °C -14.8 °C 34130.9 hPa ENE 5.1 km/h 11.1 km/h 92 % 71.12 mm
21:26 -14.1 °C -14.7 °C 34097 hPa ENE 7.7 km/h 11.1 km/h 92 % 76.2 mm
21:36 -14.2 °C -14.9 °C 34097 hPa East 14.8 km/h 31.9 km/h 92 % 76.2 mm
21:41 -14.7 °C -15.3 °C 34063.2 hPa ENE 20 km/h 31.9 km/h 92 % 76.2 mm
21:46 -14.9 °C -15.7 °C 34063.2 hPa ENE 20.8 km/h 32.3 km/h 91 % 83.82 mm
21:56 -15.4 °C -16.2 °C 34097 hPa NE 11.9 km/h 24.8 km/h 91 % 109.22 mm
22:01 -15.4 °C -16.2 °C 34097 hPa NE 12.9 km/h 27.7 km/h 91 % 121.92 mm
22:11 -16.1 °C -17 °C 34097 hPa ENE 14.2 km/h 34.1 km/h 89 % 154.94 mm
22:16 -16.1 °C -17.1 °C 34097 hPa ENE 14.2 km/h 33.2 km/h 88 % 167.64 mm
22:21 -16.2 °C -17.1 °C 34097 hPa ENE 11.4 km/h 26.7 km/h 89 % 175.26 mm
22:31 -16.3 °C -17.3 °C 34097 hPa ENE 17.4 km/h 37.5 km/h 88 % 180.34 mm
22:36 -16.3 °C -17.3 °C 34097 hPa ENE 20.9 km/h 45.9 km/h 88 % 187.96 mm
22:46 -16.3 °C -17.3 °C 34097 hPa ENE 17.5 km/h 38.3 km/h 88 % 180.34 mm
22:51 -16.3 °C -17.3 °C 34097 hPa ENE 18.7 km/h 38.3 km/h 88 % 180.34 mm
23:01 -16.4 °C -17.4 °C 34097 hPa ENE 22 km/h 40.7 km/h 88 % 160.02 mm
23:12 -16.5 °C -17.5 °C 34097 hPa ENE 16.1 km/h 34.1 km/h 88 % 142.24 mm
23:17 -16.6 °C -17.6 °C 34097 hPa ENE 17.5 km/h 34.1 km/h 88 % 129.54 mm
23:27 -16.6 °C -17.6 °C 34063.2 hPa ENE 17.5 km/h 36.5 km/h 88 % 121.92 mm
23:32 -16.6 °C -17.6 °C 34063.2 hPa ENE 15.3 km/h 36.5 km/h 88 % 121.92 mm
23:37 -16.6 °C -17.6 °C 34063.2 hPa ENE 15.6 km/h 33.2 km/h 88 % 116.84 mm
23:42 -16.7 °C -17.7 °C 34097 hPa ENE 12.9 km/h 33.2 km/h 88 % 116.84 mm
23:47 -16.7 °C -17.7 °C 34097 hPa ENE 12.4 km/h 33.6 km/h 88 % 121.92 mm
23:52 -16.6 °C -17.6 °C 34097 hPa East 14 km/h 33.6 km/h 88 % 104.14 mm
23:57 -16.7 °C -17.7 °C 34130.9 hPa East 10.3 km/h 18.7 km/h 88 % 104.14 mm
Vremenska postaja Senovo
Podatki zbrani iz Weather Underground - 2.5 mb

Script developed by  Jim McMurry - jmcmurry@mwt.net Adapted for the template by  Wim van der Kuil - Leuven-Template.eu

Vremenski podatki so objavljeni na:

European Weather Network

WeatherCloud

Weather Underground

AWEKAS

HAMweather, WeatherForYou, PWS Weather

MapView

Geostik

Slovenia weather network

Oprema, ki se uporablja:

Vremenski program
Cumulus

Vremenski server
Asus

Cumulus

Asus